WFDK1: Walnut River, Winfield, KS

Data processed at Fri May 18 2018 23:05


All information presented herein is the property of the government of the United States of America and may be revised or deleted at any time without prior notice.
Dissemination of this information without the expressed written consent of the Public Affairs Office, Tulsa District U.S. Army Corps of Engineers is strictly prohibited.
These data are gathered electronically and, as presented, have not undergone any form of quality control. These data are not guaranteed to be valid or correct.
Go to home page.
Go to station list.

Upstream stations:

Downstream station:
Previous Day
Next Day
Current Day
    
SHEF ID:       WFDK1     WALNUT R AT WINFIELD, KS
STATION TYPE:  

               PRECIP     STAGE  RIV-FLOW  BAT-LOAD
                   in        ft       cfs      volt
              Ccp-Rev   Ccp-Rev   Ccp-Rev   Ccp-Rev
(US/Central)
05/16 00:00      0.00      5.18      2461     12.49
05/16 01:00      0.00      5.17      2452     12.49
05/16 02:00      0.01      5.19      2469     12.41
05/16 03:00      0.00      5.24      2512     12.41
05/16 04:00      0.00      5.28      2547     12.41
05/16 05:00      0.00      5.33      2590     12.41
05/16 06:00      0.01      5.35      2608     12.41
05/16 07:00      0.00      5.37      2625     12.41
05/16 08:00      0.00      5.36      2617     12.41
05/16 09:00      0.00      5.35      2608     12.41
05/16 10:00      0.00      5.31      2573     12.89
05/16 11:00      0.01      5.27      2538     12.01
05/16 12:00      0.00      5.23      2504     12.97
05/16 13:00      0.00      5.16      2443     13.21
05/16 14:00      0.00      5.11      2401     13.68
05/16 15:00      0.01      5.02      2324     13.60
05/16 16:00      0.00      4.94      2256     13.37
05/16 17:00      0.00      4.86      2189     13.37
05/16 18:00      0.00      4.78      2123     13.37
05/16 19:00      0.00      4.70      2057     12.97
05/16 20:00      0.01      4.61      1983     12.65
05/16 21:00      0.00      4.52      1911     12.49
05/16 22:00      0.00      4.44      1847     12.49
05/16 23:00      0.00      4.36      1783     12.41